sensor_id;sensor_type;location;lat;lon;timestamp;temperature;humidity
74811;DHT22;63340;48.404;-4.506;2023-02-28T00:01:33;9.54;51.40
74811;DHT22;63340;48.404;-4.506;2023-02-28T00:03:59;9.54;51.18
74811;DHT22;63340;48.404;-4.506;2023-02-28T00:06:26;9.53;51.00
74811;DHT22;63340;48.404;-4.506;2023-02-28T00:08:55;9.50;51.03
74811;DHT22;63340;48.404;-4.506;2023-02-28T00:11:24;9.47;51.17
74811;DHT22;63340;48.404;-4.506;2023-02-28T00:13:50;9.46;51.66
74811;DHT22;63340;48.404;-4.506;2023-02-28T00:16:19;9.43;51.60
74811;DHT22;63340;48.404;-4.506;2023-02-28T00:18:45;9.36;51.41
74811;DHT22;63340;48.404;-4.506;2023-02-28T00:21:12;9.39;51.46
74811;DHT22;63340;48.404;-4.506;2023-02-28T00:23:37;9.42;51.29
74811;DHT22;63340;48.404;-4.506;2023-02-28T00:26:03;9.49;51.43
74811;DHT22;63340;48.404;-4.506;2023-02-28T00:28:29;9.50;51.38
74811;DHT22;63340;48.404;-4.506;2023-02-28T00:37:38;9.50;51.16
74811;DHT22;63340;48.404;-4.506;2023-02-28T00:40:05;9.49;50.96
74811;DHT22;63340;48.404;-4.506;2023-02-28T00:42:31;9.49;51.30
74811;DHT22;63340;48.404;-4.506;2023-02-28T00:44:57;9.50;51.04
74811;DHT22;63340;48.404;-4.506;2023-02-28T00:47:22;9.51;51.23
74811;DHT22;63340;48.404;-4.506;2023-02-28T00:49:48;9.53;51.35
74811;DHT22;63340;48.404;-4.506;2023-02-28T00:52:13;9.50;51.23
74811;DHT22;63340;48.404;-4.506;2023-02-28T00:54:39;9.43;51.23
74811;DHT22;63340;48.404;-4.506;2023-02-28T00:57:04;9.42;51.39
74811;DHT22;63340;48.404;-4.506;2023-02-28T00:59:30;9.36;51.92
74811;DHT22;63340;48.404;-4.506;2023-02-28T01:01:55;9.40;51.81
74811;DHT22;63340;48.404;-4.506;2023-02-28T01:04:21;9.43;52.04
74811;DHT22;63340;48.404;-4.506;2023-02-28T01:06:47;9.44;52.01
74811;DHT22;63340;48.404;-4.506;2023-02-28T01:09:12;9.46;52.04
74811;DHT22;63340;48.404;-4.506;2023-02-28T01:11:38;9.49;52.14
74811;DHT22;63340;48.404;-4.506;2023-02-28T01:14:06;9.39;52.27
74811;DHT22;63340;48.404;-4.506;2023-02-28T01:16:31;9.42;52.25
74811;DHT22;63340;48.404;-4.506;2023-02-28T01:18:57;9.46;52.21
74811;DHT22;63340;48.404;-4.506;2023-02-28T01:21:23;9.50;52.38
74811;DHT22;63340;48.404;-4.506;2023-02-28T01:23:49;9.56;52.19
74811;DHT22;63340;48.404;-4.506;2023-02-28T01:26:19;9.61;52.55
74811;DHT22;63340;48.404;-4.506;2023-02-28T01:28:45;9.71;52.05
74811;DHT22;63340;48.404;-4.506;2023-02-28T01:31:12;9.76;52.02
74811;DHT22;63340;48.404;-4.506;2023-02-28T01:33:38;9.84;52.04
74811;DHT22;63340;48.404;-4.506;2023-02-28T01:36:06;9.83;52.22
74811;DHT22;63340;48.404;-4.506;2023-02-28T01:38:33;9.83;51.87
74811;DHT22;63340;48.404;-4.506;2023-02-28T01:40:59;9.80;51.78
74811;DHT22;63340;48.404;-4.506;2023-02-28T01:43:27;9.78;51.87
74811;DHT22;63340;48.404;-4.506;2023-02-28T01:45:54;9.74;52.03
74811;DHT22;63340;48.404;-4.506;2023-02-28T01:48:32;9.69;52.24
74811;DHT22;63340;48.404;-4.506;2023-02-28T01:51:05;9.64;52.33
74811;DHT22;63340;48.404;-4.506;2023-02-28T01:53:39;9.64;52.63
74811;DHT22;63340;48.404;-4.506;2023-02-28T01:56:08;9.64;52.50
74811;DHT22;63340;48.404;-4.506;2023-02-28T01:58:36;9.63;52.36
74811;DHT22;63340;48.404;-4.506;2023-02-28T02:01:02;9.60;52.57
74811;DHT22;63340;48.404;-4.506;2023-02-28T02:03:29;9.59;52.64
74811;DHT22;63340;48.404;-4.506;2023-02-28T02:05:55;9.63;52.87
74811;DHT22;63340;48.404;-4.506;2023-02-28T02:08:23;9.66;52.93
74811;DHT22;63340;48.404;-4.506;2023-02-28T02:11:00;9.73;52.72
74811;DHT22;63340;48.404;-4.506;2023-02-28T02:25:15;9.86;52.61
74811;DHT22;63340;48.404;-4.506;2023-02-28T02:36:33;9.91;53.05
74811;DHT22;63340;48.404;-4.506;2023-02-28T02:39:12;9.93;52.94
74811;DHT22;63340;48.404;-4.506;2023-02-28T02:41:46;9.87;52.85
74811;DHT22;63340;48.404;-4.506;2023-02-28T02:47:14;9.81;53.30
74811;DHT22;63340;48.404;-4.506;2023-02-28T02:49:45;9.77;53.10
74811;DHT22;63340;48.404;-4.506;2023-02-28T02:52:14;9.77;53.25
74811;DHT22;63340;48.404;-4.506;2023-02-28T02:54:43;9.73;53.17
74811;DHT22;63340;48.404;-4.506;2023-02-28T02:57:21;9.70;53.66
74811;DHT22;63340;48.404;-4.506;2023-02-28T02:59:50;9.69;53.67
74811;DHT22;63340;48.404;-4.506;2023-02-28T03:02:17;9.70;53.82
74811;DHT22;63340;48.404;-4.506;2023-02-28T03:04:48;9.74;53.70
74811;DHT22;63340;48.404;-4.506;2023-02-28T03:07:16;9.71;53.59
74811;DHT22;63340;48.404;-4.506;2023-02-28T03:09:50;9.67;54.06
74811;DHT22;63340;48.404;-4.506;2023-02-28T03:12:17;9.67;54.07
74811;DHT22;63340;48.404;-4.506;2023-02-28T03:26:06;9.80;54.11
74811;DHT22;63340;48.404;-4.506;2023-02-28T03:28:46;9.86;53.79
74811;DHT22;63340;48.404;-4.506;2023-02-28T03:31:22;9.87;53.72
74811;DHT22;63340;48.404;-4.506;2023-02-28T03:33:55;9.91;53.71
74811;DHT22;63340;48.404;-4.506;2023-02-28T03:36:30;9.94;53.73
74811;DHT22;63340;48.404;-4.506;2023-02-28T03:39:07;9.97;53.57
74811;DHT22;63340;48.404;-4.506;2023-02-28T03:41:58;9.93;53.33
74811;DHT22;63340;48.404;-4.506;2023-02-28T03:44:41;9.94;53.94
74811;DHT22;63340;48.404;-4.506;2023-02-28T03:47:16;9.93;53.80
74811;DHT22;63340;48.404;-4.506;2023-02-28T03:49:53;9.93;53.72
74811;DHT22;63340;48.404;-4.506;2023-02-28T03:52:22;9.94;53.54
74811;DHT22;63340;48.404;-4.506;2023-02-28T03:54:53;9.94;53.05
74811;DHT22;63340;48.404;-4.506;2023-02-28T03:57:37;9.97;52.85
74811;DHT22;63340;48.404;-4.506;2023-02-28T04:00:13;9.97;52.56
74811;DHT22;63340;48.404;-4.506;2023-02-28T04:02:41;9.91;52.54
74811;DHT22;63340;48.404;-4.506;2023-02-28T04:05:07;9.93;52.73
74811;DHT22;63340;48.404;-4.506;2023-02-28T04:07:33;9.94;52.35
74811;DHT22;63340;48.404;-4.506;2023-02-28T04:09:59;9.94;52.53
74811;DHT22;63340;48.404;-4.506;2023-02-28T04:12:25;9.97;52.17
74811;DHT22;63340;48.404;-4.506;2023-02-28T04:14:51;10.01;52.50
74811;DHT22;63340;48.404;-4.506;2023-02-28T04:17:16;10.05;52.77
74811;DHT22;63340;48.404;-4.506;2023-02-28T04:19:42;10.05;52.84
74811;DHT22;63340;48.404;-4.506;2023-02-28T04:22:09;10.08;52.83
74811;DHT22;63340;48.404;-4.506;2023-02-28T04:24:35;10.08;52.93
74811;DHT22;63340;48.404;-4.506;2023-02-28T04:27:01;10.14;52.58
74811;DHT22;63340;48.404;-4.506;2023-02-28T04:29:31;10.08;53.39
74811;DHT22;63340;48.404;-4.506;2023-02-28T04:32:00;10.08;53.41
74811;DHT22;63340;48.404;-4.506;2023-02-28T04:34:28;10.12;52.83
74811;DHT22;63340;48.404;-4.506;2023-02-28T04:36:55;10.08;53.06
74811;DHT22;63340;48.404;-4.506;2023-02-28T04:39:22;10.05;53.36
74811;DHT22;63340;48.404;-4.506;2023-02-28T04:41:48;10.04;53.36
74811;DHT22;63340;48.404;-4.506;2023-02-28T04:44:15;10.05;53.59
74811;DHT22;63340;48.404;-4.506;2023-02-28T04:46:41;10.08;53.72
74811;DHT22;63340;48.404;-4.506;2023-02-28T04:49:09;10.08;53.71
74811;DHT22;63340;48.404;-4.506;2023-02-28T04:51:36;10.04;53.81
74811;DHT22;63340;48.404;-4.506;2023-02-28T04:54:01;10.04;54.18
74811;DHT22;63340;48.404;-4.506;2023-02-28T04:56:27;10.08;54.17
74811;DHT22;63340;48.404;-4.506;2023-02-28T04:58:53;10.11;54.39
74811;DHT22;63340;48.404;-4.506;2023-02-28T05:01:24;10.11;54.81
74811;DHT22;63340;48.404;-4.506;2023-02-28T05:03:51;10.11;54.60
74811;DHT22;63340;48.404;-4.506;2023-02-28T05:06:18;10.11;54.70
74811;DHT22;63340;48.404;-4.506;2023-02-28T05:08:44;10.15;54.86
74811;DHT22;63340;48.404;-4.506;2023-02-28T05:11:18;10.15;54.88
74811;DHT22;63340;48.404;-4.506;2023-02-28T05:13:51;10.18;54.86
74811;DHT22;63340;48.404;-4.506;2023-02-28T05:16:19;10.17;55.04
74811;DHT22;63340;48.404;-4.506;2023-02-28T05:18:50;10.18;54.92
74811;DHT22;63340;48.404;-4.506;2023-02-28T05:21:32;10.21;55.30
74811;DHT22;63340;48.404;-4.506;2023-02-28T05:24:12;10.15;54.97
74811;DHT22;63340;48.404;-4.506;2023-02-28T05:27:12;10.14;55.06
74811;DHT22;63340;48.404;-4.506;2023-02-28T05:29:47;10.11;55.11
74811;DHT22;63340;48.404;-4.506;2023-02-28T05:32:21;10.14;55.12
74811;DHT22;63340;48.404;-4.506;2023-02-28T05:35:02;10.12;55.29
74811;DHT22;63340;48.404;-4.506;2023-02-28T05:37:47;10.12;54.96
74811;DHT22;63340;48.404;-4.506;2023-02-28T05:43:39;10.04;55.14
74811;DHT22;63340;48.404;-4.506;2023-02-28T05:49:45;9.86;56.01
74811;DHT22;63340;48.404;-4.506;2023-02-28T05:52:14;9.84;55.95
74811;DHT22;63340;48.404;-4.506;2023-02-28T05:54:39;9.78;56.64
74811;DHT22;63340;48.404;-4.506;2023-02-28T05:57:19;9.71;57.42
74811;DHT22;63340;48.404;-4.506;2023-02-28T05:59:45;9.66;57.21
74811;DHT22;63340;48.404;-4.506;2023-02-28T06:02:17;9.59;57.93
74811;DHT22;63340;48.404;-4.506;2023-02-28T06:04:43;9.49;58.81
74811;DHT22;63340;48.404;-4.506;2023-02-28T06:07:12;9.43;59.62
74811;DHT22;63340;48.404;-4.506;2023-02-28T06:09:38;9.38;60.08
74811;DHT22;63340;48.404;-4.506;2023-02-28T06:12:12;9.38;60.01
74811;DHT22;63340;48.404;-4.506;2023-02-28T06:15:01;9.36;61.05
74811;DHT22;63340;48.404;-4.506;2023-02-28T06:17:42;9.30;61.11
74811;DHT22;63340;48.404;-4.506;2023-02-28T06:20:09;9.26;60.90
74811;DHT22;63340;48.404;-4.506;2023-02-28T06:22:38;9.25;61.13
74811;DHT22;63340;48.404;-4.506;2023-02-28T06:25:06;9.25;60.60
74811;DHT22;63340;48.404;-4.506;2023-02-28T06:27:33;9.33;60.72
74811;DHT22;63340;48.404;-4.506;2023-02-28T06:29:59;9.36;60.72
74811;DHT22;63340;48.404;-4.506;2023-02-28T06:32:30;9.38;60.82
74811;DHT22;63340;48.404;-4.506;2023-02-28T06:35:07;9.42;60.65
74811;DHT22;63340;48.404;-4.506;2023-02-28T06:37:36;9.49;60.24
74811;DHT22;63340;48.404;-4.506;2023-02-28T06:40:05;9.56;60.07
74811;DHT22;63340;48.404;-4.506;2023-02-28T06:42:45;9.69;60.29
74811;DHT22;63340;48.404;-4.506;2023-02-28T06:45:11;9.74;59.88
74811;DHT22;63340;48.404;-4.506;2023-02-28T06:51:25;9.88;59.04
74811;DHT22;63340;48.404;-4.506;2023-02-28T06:54:04;9.93;59.24
74811;DHT22;63340;48.404;-4.506;2023-02-28T06:56:39;9.94;58.85
74811;DHT22;63340;48.404;-4.506;2023-02-28T06:59:13;9.95;59.16
74811;DHT22;63340;48.404;-4.506;2023-02-28T07:01:47;9.97;59.24
74811;DHT22;63340;48.404;-4.506;2023-02-28T07:04:16;10.01;59.05
74811;DHT22;63340;48.404;-4.506;2023-02-28T07:07:02;10.08;58.14
74811;DHT22;63340;48.404;-4.506;2023-02-28T07:09:33;10.09;58.30
74811;DHT22;63340;48.404;-4.506;2023-02-28T07:11:59;10.08;57.93
74811;DHT22;63340;48.404;-4.506;2023-02-28T07:14:36;10.14;58.10
74811;DHT22;63340;48.404;-4.506;2023-02-28T07:17:08;10.17;57.41
74811;DHT22;63340;48.404;-4.506;2023-02-28T07:19:39;10.19;56.99
74811;DHT22;63340;48.404;-4.506;2023-02-28T07:22:07;10.19;56.82
74811;DHT22;63340;48.404;-4.506;2023-02-28T07:24:50;10.21;55.86
74811;DHT22;63340;48.404;-4.506;2023-02-28T07:27:21;10.29;55.84
74811;DHT22;63340;48.404;-4.506;2023-02-28T07:29:51;10.28;54.63
74811;DHT22;63340;48.404;-4.506;2023-02-28T07:32:17;10.28;55.37
74811;DHT22;63340;48.404;-4.506;2023-02-28T07:34:44;10.32;54.57
74811;DHT22;63340;48.404;-4.506;2023-02-28T07:37:09;10.31;54.72
74811;DHT22;63340;48.404;-4.506;2023-02-28T07:39:35;10.36;54.34
74811;DHT22;63340;48.404;-4.506;2023-02-28T07:42:04;10.41;53.89
74811;DHT22;63340;48.404;-4.506;2023-02-28T07:44:30;10.44;53.31
74811;DHT22;63340;48.404;-4.506;2023-02-28T07:46:55;10.39;53.98
74811;DHT22;63340;48.404;-4.506;2023-02-28T07:49:20;10.35;54.31
74811;DHT22;63340;48.404;-4.506;2023-02-28T07:51:46;10.36;54.08
74811;DHT22;63340;48.404;-4.506;2023-02-28T07:54:11;10.42;54.23
74811;DHT22;63340;48.404;-4.506;2023-02-28T07:56:37;10.44;53.80
74811;DHT22;63340;48.404;-4.506;2023-02-28T07:59:02;10.48;53.44
74811;DHT22;63340;48.404;-4.506;2023-02-28T08:01:28;10.48;53.07
74811;DHT22;63340;48.404;-4.506;2023-02-28T08:03:53;10.52;52.80
74811;DHT22;63340;48.404;-4.506;2023-02-28T08:06:22;10.45;53.48
74811;DHT22;63340;48.404;-4.506;2023-02-28T08:08:48;10.34;54.20
74811;DHT22;63340;48.404;-4.506;2023-02-28T08:11:14;10.25;54.94
74811;DHT22;63340;48.404;-4.506;2023-02-28T08:13:39;10.15;55.11
74811;DHT22;63340;48.404;-4.506;2023-02-28T08:16:05;10.15;55.43
74811;DHT22;63340;48.404;-4.506;2023-02-28T08:18:32;10.12;55.44
74811;DHT22;63340;48.404;-4.506;2023-02-28T08:20:58;10.09;55.65
74811;DHT22;63340;48.404;-4.506;2023-02-28T08:23:24;10.11;56.10
74811;DHT22;63340;48.404;-4.506;2023-02-28T08:25:54;10.18;55.75
74811;DHT22;63340;48.404;-4.506;2023-02-28T08:28:20;10.19;54.83
74811;DHT22;63340;48.404;-4.506;2023-02-28T08:30:45;10.26;55.50
74811;DHT22;63340;48.404;-4.506;2023-02-28T08:33:10;10.35;55.04
74811;DHT22;63340;48.404;-4.506;2023-02-28T08:35:36;10.46;54.85
74811;DHT22;63340;48.404;-4.506;2023-02-28T08:38:02;10.55;54.23
74811;DHT22;63340;48.404;-4.506;2023-02-28T08:40:27;10.63;54.23
74811;DHT22;63340;48.404;-4.506;2023-02-28T08:42:53;10.67;54.01
74811;DHT22;63340;48.404;-4.506;2023-02-28T08:45:18;10.70;54.00
74811;DHT22;63340;48.404;-4.506;2023-02-28T08:47:44;10.69;53.57
74811;DHT22;63340;48.404;-4.506;2023-02-28T08:50:09;10.72;53.74
74811;DHT22;63340;48.404;-4.506;2023-02-28T08:52:35;10.72;53.70
74811;DHT22;63340;48.404;-4.506;2023-02-28T08:55:00;10.73;53.59
74811;DHT22;63340;48.404;-4.506;2023-02-28T08:57:26;10.74;53.50
74811;DHT22;63340;48.404;-4.506;2023-02-28T08:59:52;10.74;52.83
74811;DHT22;63340;48.404;-4.506;2023-02-28T09:02:18;10.79;53.42
74811;DHT22;63340;48.404;-4.506;2023-02-28T09:04:43;10.92;53.34
74811;DHT22;63340;48.404;-4.506;2023-02-28T09:07:11;10.99;52.98
74811;DHT22;63340;48.404;-4.506;2023-02-28T09:09:36;11.07;51.38
74811;DHT22;63340;48.404;-4.506;2023-02-28T09:12:02;11.10;51.78
74811;DHT22;63340;48.404;-4.506;2023-02-28T09:14:28;11.15;51.07
74811;DHT22;63340;48.404;-4.506;2023-02-28T09:16:53;11.15;50.54
74811;DHT22;63340;48.404;-4.506;2023-02-28T09:19:19;11.18;51.24
74811;DHT22;63340;48.404;-4.506;2023-02-28T09:21:45;11.20;50.89
74811;DHT22;63340;48.404;-4.506;2023-02-28T09:24:11;11.20;50.79
74811;DHT22;63340;48.404;-4.506;2023-02-28T09:26:39;11.21;50.47
74811;DHT22;63340;48.404;-4.506;2023-02-28T09:29:05;11.14;49.71
74811;DHT22;63340;48.404;-4.506;2023-02-28T09:31:32;11.10;50.43
74811;DHT22;63340;48.404;-4.506;2023-02-28T09:33:58;11.07;49.75
74811;DHT22;63340;48.404;-4.506;2023-02-28T09:36:25;11.11;50.25
74811;DHT22;63340;48.404;-4.506;2023-02-28T09:38:51;11.10;50.21
74811;DHT22;63340;48.404;-4.506;2023-02-28T09:41:22;11.14;50.63
74811;DHT22;63340;48.404;-4.506;2023-02-28T09:43:52;11.17;50.61
74811;DHT22;63340;48.404;-4.506;2023-02-28T09:49:08;11.13;49.34
74811;DHT22;63340;48.404;-4.506;2023-02-28T09:51:44;11.13;49.89
74811;DHT22;63340;48.404;-4.506;2023-02-28T09:54:16;11.03;49.25
74811;DHT22;63340;48.404;-4.506;2023-02-28T09:56:56;11.06;49.92
74811;DHT22;63340;48.404;-4.506;2023-02-28T09:59:39;11.10;50.05
74811;DHT22;63340;48.404;-4.506;2023-02-28T10:05:13;11.13;50.11
74811;DHT22;63340;48.404;-4.506;2023-02-28T10:08:18;11.15;50.63
74811;DHT22;63340;48.404;-4.506;2023-02-28T10:13:16;11.24;50.31
74811;DHT22;63340;48.404;-4.506;2023-02-28T10:15:45;11.28;50.34
74811;DHT22;63340;48.404;-4.506;2023-02-28T10:18:16;11.32;50.77
74811;DHT22;63340;48.404;-4.506;2023-02-28T10:20:46;11.36;50.20
74811;DHT22;63340;48.404;-4.506;2023-02-28T10:23:21;11.24;50.15
74811;DHT22;63340;48.404;-4.506;2023-02-28T10:25:54;11.08;50.32
74811;DHT22;63340;48.404;-4.506;2023-02-28T10:28:20;11.04;51.08
74811;DHT22;63340;48.404;-4.506;2023-02-28T10:30:48;11.10;51.08
74811;DHT22;63340;48.404;-4.506;2023-02-28T10:33:33;11.21;51.10
74811;DHT22;63340;48.404;-4.506;2023-02-28T10:36:03;11.30;50.39
74811;DHT22;63340;48.404;-4.506;2023-02-28T10:38:38;11.34;50.41
74811;DHT22;63340;48.404;-4.506;2023-02-28T10:41:11;11.39;50.25
74811;DHT22;63340;48.404;-4.506;2023-02-28T10:43:39;11.36;50.43
74811;DHT22;63340;48.404;-4.506;2023-02-28T10:48:37;11.30;50.39
74811;DHT22;63340;48.404;-4.506;2023-02-28T10:51:04;11.24;50.31
74811;DHT22;63340;48.404;-4.506;2023-02-28T10:58:30;11.17;52.08
74811;DHT22;63340;48.404;-4.506;2023-02-28T11:00:57;11.11;52.41
74811;DHT22;63340;48.404;-4.506;2023-02-28T11:03:29;11.13;52.54
74811;DHT22;63340;48.404;-4.506;2023-02-28T11:05:56;11.15;52.49
74811;DHT22;63340;48.404;-4.506;2023-02-28T11:08:22;11.21;52.32
74811;DHT22;63340;48.404;-4.506;2023-02-28T11:11:03;11.35;52.07
74811;DHT22;63340;48.404;-4.506;2023-02-28T11:13:33;11.42;52.19
74811;DHT22;63340;48.404;-4.506;2023-02-28T11:19:35;11.55;51.09
74811;DHT22;63340;48.404;-4.506;2023-02-28T11:22:03;11.54;52.94
74811;DHT22;63340;48.404;-4.506;2023-02-28T11:31:04;11.43;53.74
74811;DHT22;63340;48.404;-4.506;2023-02-28T11:33:53;11.32;54.66
74811;DHT22;63340;48.404;-4.506;2023-02-28T11:36:27;11.30;56.02
74811;DHT22;63340;48.404;-4.506;2023-02-28T11:39:09;11.22;56.12
74811;DHT22;63340;48.404;-4.506;2023-02-28T11:56:20;11.63;56.86
74811;DHT22;63340;48.404;-4.506;2023-02-28T11:59:22;11.82;57.02
74811;DHT22;63340;48.404;-4.506;2023-02-28T12:02:26;12.06;55.20
74811;DHT22;63340;48.404;-4.506;2023-02-28T12:11:00;12.31;53.88
74811;DHT22;63340;48.404;-4.506;2023-02-28T12:19:19;12.26;53.56
74811;DHT22;63340;48.404;-4.506;2023-02-28T12:22:09;12.27;55.39
74811;DHT22;63340;48.404;-4.506;2023-02-28T12:27:34;11.99;56.77
74811;DHT22;63340;48.404;-4.506;2023-02-28T12:30:13;11.90;57.36
74811;DHT22;63340;48.404;-4.506;2023-02-28T12:32:56;11.83;57.65
74811;DHT22;63340;48.404;-4.506;2023-02-28T12:35:50;11.76;58.19
74811;DHT22;63340;48.404;-4.506;2023-02-28T12:38:22;11.78;58.52
74811;DHT22;63340;48.404;-4.506;2023-02-28T12:43:57;11.90;59.48
74811;DHT22;63340;48.404;-4.506;2023-02-28T12:46:48;11.89;57.79
74811;DHT22;63340;48.404;-4.506;2023-02-28T12:51:40;11.93;57.65
74811;DHT22;63340;48.404;-4.506;2023-02-28T12:54:25;11.90;57.70
74811;DHT22;63340;48.404;-4.506;2023-02-28T12:57:26;11.82;58.16
74811;DHT22;63340;48.404;-4.506;2023-02-28T13:00:02;11.61;57.92
74811;DHT22;63340;48.404;-4.506;2023-02-28T13:10:43;11.43;58.59
74811;DHT22;63340;48.404;-4.506;2023-02-28T13:13:21;11.46;58.56
74811;DHT22;63340;48.404;-4.506;2023-02-28T13:18:34;11.63;60.35
74811;DHT22;63340;48.404;-4.506;2023-02-28T13:21:21;11.75;59.58
74811;DHT22;63340;48.404;-4.506;2023-02-28T13:28:59;11.79;59.90
74811;DHT22;63340;48.404;-4.506;2023-02-28T13:31:25;11.70;58.69
74811;DHT22;63340;48.404;-4.506;2023-02-28T13:38:48;11.70;58.67
74811;DHT22;63340;48.404;-4.506;2023-02-28T13:46:32;11.66;58.25
74811;DHT22;63340;48.404;-4.506;2023-02-28T13:49:25;11.68;57.74
74811;DHT22;63340;48.404;-4.506;2023-02-28T14:00:21;11.69;58.18
74811;DHT22;63340;48.404;-4.506;2023-02-28T14:03:06;11.68;59.35
74811;DHT22;63340;48.404;-4.506;2023-02-28T14:05:34;11.63;60.54
74811;DHT22;63340;48.404;-4.506;2023-02-28T14:08:06;11.63;58.65
74811;DHT22;63340;48.404;-4.506;2023-02-28T14:10:44;11.69;58.67
74811;DHT22;63340;48.404;-4.506;2023-02-28T14:13:43;11.78;59.45
74811;DHT22;63340;48.404;-4.506;2023-02-28T14:16:43;11.75;58.86
74811;DHT22;63340;48.404;-4.506;2023-02-28T14:19:30;11.78;58.32
74811;DHT22;63340;48.404;-4.506;2023-02-28T14:25:30;11.94;58.53
74811;DHT22;63340;48.404;-4.506;2023-02-28T14:28:19;12.09;59.72
74811;DHT22;63340;48.404;-4.506;2023-02-28T14:39:00;11.91;56.18
74811;DHT22;63340;48.404;-4.506;2023-02-28T14:41:35;11.96;58.20
74811;DHT22;63340;48.404;-4.506;2023-02-28T14:44:11;12.01;56.48
74811;DHT22;63340;48.404;-4.506;2023-02-28T14:46:40;12.00;57.11
74811;DHT22;63340;48.404;-4.506;2023-02-28T14:49:11;12.12;56.78
74811;DHT22;63340;48.404;-4.506;2023-02-28T14:51:36;12.06;57.27
74811;DHT22;63340;48.404;-4.506;2023-02-28T14:54:03;11.94;57.51
74811;DHT22;63340;48.404;-4.506;2023-02-28T14:56:37;11.97;57.25
74811;DHT22;63340;48.404;-4.506;2023-02-28T14:59:04;11.96;56.89
74811;DHT22;63340;48.404;-4.506;2023-02-28T15:01:30;11.89;57.58
74811;DHT22;63340;48.404;-4.506;2023-02-28T15:04:05;11.80;57.73
74811;DHT22;63340;48.404;-4.506;2023-02-28T15:06:32;11.73;58.11
74811;DHT22;63340;48.404;-4.506;2023-02-28T15:09:15;11.66;58.67
74811;DHT22;63340;48.404;-4.506;2023-02-28T15:11:40;11.68;58.68
74811;DHT22;63340;48.404;-4.506;2023-02-28T15:14:07;11.70;58.58
74811;DHT22;63340;48.404;-4.506;2023-02-28T15:16:38;11.73;58.92
74811;DHT22;63340;48.404;-4.506;2023-02-28T15:19:19;11.78;59.28
74811;DHT22;63340;48.404;-4.506;2023-02-28T15:21:50;11.85;59.33
74811;DHT22;63340;48.404;-4.506;2023-02-28T15:26:54;12.00;59.82
74811;DHT22;63340;48.404;-4.506;2023-02-28T15:29:23;12.03;58.60
74811;DHT22;63340;48.404;-4.506;2023-02-28T15:31:55;12.04;57.24
74811;DHT22;63340;48.404;-4.506;2023-02-28T15:34:26;12.04;56.68
74811;DHT22;63340;48.404;-4.506;2023-02-28T15:36:52;11.93;55.85
74811;DHT22;63340;48.404;-4.506;2023-02-28T15:39:21;11.86;56.03
74811;DHT22;63340;48.404;-4.506;2023-02-28T15:41:47;11.91;55.45
74811;DHT22;63340;48.404;-4.506;2023-02-28T15:44:26;11.75;54.89
74811;DHT22;63340;48.404;-4.506;2023-02-28T15:47:04;11.70;55.65
74811;DHT22;63340;48.404;-4.506;2023-02-28T15:50:06;11.78;55.22
74811;DHT22;63340;48.404;-4.506;2023-02-28T15:52:44;11.69;54.39
74811;DHT22;63340;48.404;-4.506;2023-02-28T15:55:42;11.65;54.09
74811;DHT22;63340;48.404;-4.506;2023-02-28T15:58:10;11.72;54.92
74811;DHT22;63340;48.404;-4.506;2023-02-28T16:00:39;11.70;54.28
74811;DHT22;63340;48.404;-4.506;2023-02-28T16:03:27;11.75;55.12
74811;DHT22;63340;48.404;-4.506;2023-02-28T16:08:46;11.70;56.32
74811;DHT22;63340;48.404;-4.506;2023-02-28T16:11:14;11.62;57.24
74811;DHT22;63340;48.404;-4.506;2023-02-28T16:13:39;11.57;57.84
74811;DHT22;63340;48.404;-4.506;2023-02-28T16:16:05;11.46;58.40
74811;DHT22;63340;48.404;-4.506;2023-02-28T16:18:30;11.38;59.24
74811;DHT22;63340;48.404;-4.506;2023-02-28T16:20:56;11.34;59.11
74811;DHT22;63340;48.404;-4.506;2023-02-28T16:23:21;11.32;59.45
74811;DHT22;63340;48.404;-4.506;2023-02-28T16:25:47;11.30;59.25
74811;DHT22;63340;48.404;-4.506;2023-02-28T16:28:19;11.35;59.50
74811;DHT22;63340;48.404;-4.506;2023-02-28T16:30:45;11.38;59.74
74811;DHT22;63340;48.404;-4.506;2023-02-28T16:33:11;11.39;59.64
74811;DHT22;63340;48.404;-4.506;2023-02-28T16:35:36;11.43;60.16
74811;DHT22;63340;48.404;-4.506;2023-02-28T16:38:02;11.45;59.39
74811;DHT22;63340;48.404;-4.506;2023-02-28T16:40:33;11.48;59.93
74811;DHT22;63340;48.404;-4.506;2023-02-28T16:43:00;11.45;59.30
74811;DHT22;63340;48.404;-4.506;2023-02-28T16:45:29;11.48;59.00
74811;DHT22;63340;48.404;-4.506;2023-02-28T16:47:55;11.52;59.18
74811;DHT22;63340;48.404;-4.506;2023-02-28T16:50:26;11.52;59.12
74811;DHT22;63340;48.404;-4.506;2023-02-28T16:52:51;11.52;58.67
74811;DHT22;63340;48.404;-4.506;2023-02-28T16:55:18;11.51;58.63
74811;DHT22;63340;48.404;-4.506;2023-02-28T16:57:47;11.52;59.18
74811;DHT22;63340;48.404;-4.506;2023-02-28T17:00:14;11.45;59.52
74811;DHT22;63340;48.404;-4.506;2023-02-28T17:02:40;11.57;58.22
74811;DHT22;63340;48.404;-4.506;2023-02-28T17:05:05;11.78;57.62
74811;DHT22;63340;48.404;-4.506;2023-02-28T17:07:31;11.85;57.17
74811;DHT22;63340;48.404;-4.506;2023-02-28T17:09:57;11.86;56.59
74811;DHT22;63340;48.404;-4.506;2023-02-28T17:12:23;11.79;56.08
74811;DHT22;63340;48.404;-4.506;2023-02-28T17:14:48;11.82;57.32
74811;DHT22;63340;48.404;-4.506;2023-02-28T17:17:20;11.90;56.70
74811;DHT22;63340;48.404;-4.506;2023-02-28T17:19:46;12.13;56.02
74811;DHT22;63340;48.404;-4.506;2023-02-28T17:22:12;12.23;55.70
74811;DHT22;63340;48.404;-4.506;2023-02-28T17:24:37;12.31;55.53
74811;DHT22;63340;48.404;-4.506;2023-02-28T17:27:03;12.48;56.13
74811;DHT22;63340;48.404;-4.506;2023-02-28T17:29:29;12.61;55.38
74811;DHT22;63340;48.404;-4.506;2023-02-28T17:31:54;12.49;54.69
74811;DHT22;63340;48.404;-4.506;2023-02-28T17:34:20;12.38;54.56
74811;DHT22;63340;48.404;-4.506;2023-02-28T17:36:48;12.33;54.15
74811;DHT22;63340;48.404;-4.506;2023-02-28T17:39:14;12.21;54.95
74811;DHT22;63340;48.404;-4.506;2023-02-28T17:41:44;12.01;54.48
74811;DHT22;63340;48.404;-4.506;2023-02-28T17:44:11;11.80;54.71
74811;DHT22;63340;48.404;-4.506;2023-02-28T17:46:47;11.72;55.25
74811;DHT22;63340;48.404;-4.506;2023-02-28T17:49:18;11.49;55.64
74811;DHT22;63340;48.404;-4.506;2023-02-28T17:51:44;11.49;56.15
74811;DHT22;63340;48.404;-4.506;2023-02-28T17:54:13;11.46;56.19
74811;DHT22;63340;48.404;-4.506;2023-02-28T17:56:43;11.43;55.94
74811;DHT22;63340;48.404;-4.506;2023-02-28T17:59:10;11.39;56.76
74811;DHT22;63340;48.404;-4.506;2023-02-28T18:01:37;11.36;56.69
74811;DHT22;63340;48.404;-4.506;2023-02-28T18:04:03;11.35;56.58
74811;DHT22;63340;48.404;-4.506;2023-02-28T18:06:43;11.32;56.95
74811;DHT22;63340;48.404;-4.506;2023-02-28T18:09:31;11.38;56.74
74811;DHT22;63340;48.404;-4.506;2023-02-28T18:11:57;11.38;56.50
74811;DHT22;63340;48.404;-4.506;2023-02-28T18:14:24;11.38;56.41
74811;DHT22;63340;48.404;-4.506;2023-02-28T18:16:52;11.35;56.55
74811;DHT22;63340;48.404;-4.506;2023-02-28T18:26:12;11.17;56.77
74811;DHT22;63340;48.404;-4.506;2023-02-28T18:28:39;11.15;57.08
74811;DHT22;63340;48.404;-4.506;2023-02-28T18:31:08;11.20;56.97
74811;DHT22;63340;48.404;-4.506;2023-02-28T18:33:34;11.22;57.02